createdAt,value
2018-05-21T00:00:01.640Z,1040.69
2018-05-21T00:01:01.623Z,1040.62
2018-05-21T00:02:01.623Z,1040.61
2018-05-21T00:03:01.608Z,1040.61
2018-05-21T00:04:01.606Z,1040.56
2018-05-21T00:05:01.593Z,1040.63
2018-05-21T00:06:01.594Z,1040.61
2018-05-21T00:07:01.584Z,1040.59
2018-05-21T00:08:01.577Z,1040.62
2018-05-21T00:09:01.563Z,1040.62
2018-05-21T00:10:01.557Z,1040.61
2018-05-21T00:11:01.557Z,1040.63
2018-05-21T00:12:01.553Z,1040.59
2018-05-21T00:13:01.547Z,1040.6
2018-05-21T00:14:01.529Z,1040.61
2018-05-21T00:15:01.520Z,1040.64
2018-05-21T00:16:01.516Z,1040.59
2018-05-21T00:17:01.505Z,1040.6
2018-05-21T00:18:01.512Z,1040.6
2018-05-21T00:19:01.488Z,1040.58
2018-05-21T00:20:01.486Z,1040.57
2018-05-21T00:21:01.472Z,1040.52
2018-05-21T00:22:01.473Z,1040.58
2018-05-21T00:23:01.457Z,1040.56
2018-05-21T00:24:01.502Z,1040.59
2018-05-21T00:25:01.442Z,1040.55
2018-05-21T00:26:01.435Z,1040.57
2018-05-21T00:27:01.431Z,1040.58
2018-05-21T00:28:01.423Z,1040.56
2018-05-21T00:29:01.416Z,1040.56
2018-05-21T00:30:01.403Z,1040.53
2018-05-21T00:31:01.395Z,1040.56
2018-05-21T00:32:01.387Z,1040.55
2018-05-21T00:33:01.384Z,1040.58
2018-05-21T00:34:01.373Z,1040.54
2018-05-21T00:35:01.374Z,1040.56
2018-05-21T00:36:01.356Z,1040.59
2018-05-21T00:37:01.353Z,1040.57
2018-05-21T00:38:01.341Z,1040.58
2018-05-21T00:39:01.350Z,1040.62
2018-05-21T00:40:01.324Z,1040.59
2018-05-21T00:41:01.338Z,1040.59
2018-05-21T00:42:01.308Z,1040.62
2018-05-21T00:43:01.301Z,1040.58
2018-05-21T00:44:01.298Z,1040.54
2018-05-21T00:45:01.290Z,1040.56
2018-05-21T00:46:01.286Z,1040.58
2018-05-21T00:47:01.272Z,1040.61
2018-05-21T00:48:01.261Z,1040.6
2018-05-21T00:49:01.259Z,1040.62
2018-05-21T00:50:01.246Z,1040.63
2018-05-21T00:51:01.242Z,1040.62
2018-05-21T00:52:01.230Z,1040.65
2018-05-21T00:53:01.226Z,1040.64
2018-05-21T00:54:01.212Z,1040.63
2018-05-21T00:55:01.205Z,1040.61
2018-05-21T00:56:01.206Z,1040.67
2018-05-21T00:57:01.188Z,1040.67
2018-05-21T00:58:01.181Z,1040.67
2018-05-21T00:59:01.172Z,1040.66
2018-05-21T01:00:01.168Z,1040.65
2018-05-21T01:01:01.162Z,1040.63
2018-05-21T01:02:01.148Z,1040.67
2018-05-21T01:03:01.141Z,1040.68
2018-05-21T01:04:01.134Z,1040.71
2018-05-21T01:05:01.129Z,1040.68
2018-05-21T01:06:01.117Z,1040.71
2018-05-21T01:07:01.114Z,1040.67
2018-05-21T01:08:01.106Z,1040.7
2018-05-21T01:09:01.092Z,1040.69
2018-05-21T01:10:01.089Z,1040.68
2018-05-21T01:11:01.075Z,1040.69
2018-05-21T01:12:01.377Z,1040.69
2018-05-21T01:13:01.058Z,1040.7
2018-05-21T01:14:01.052Z,1040.73
2018-05-21T01:15:01.042Z,1040.72
2018-05-21T01:16:01.043Z,1040.7
2018-05-21T01:17:01.032Z,1040.7
2018-05-21T01:18:01.019Z,1040.71
2018-05-21T01:19:01.016Z,1040.67
2018-05-21T01:20:01.001Z,1040.68
2018-05-21T01:21:01.000Z,1040.73
2018-05-21T01:22:00.988Z,1040.67
2018-05-21T01:23:00.982Z,1040.7
2018-05-21T01:24:00.969Z,1040.7
2018-05-21T01:25:00.966Z,1040.67
2018-05-21T01:26:00.952Z,1040.66
2018-05-21T01:27:00.952Z,1040.67
2018-05-21T01:28:00.935Z,1040.63
2018-05-21T01:29:00.933Z,1040.69
2018-05-21T01:30:00.930Z,1040.71
2018-05-21T01:31:00.919Z,1040.69
2018-05-21T01:32:00.908Z,1040.7
2018-05-21T01:33:00.901Z,1040.72
2018-05-21T01:34:00.888Z,1040.76
2018-05-21T01:35:00.878Z,1040.74
2018-05-21T01:36:00.870Z,1040.75
2018-05-21T01:37:00.866Z,1040.74
2018-05-21T01:38:00.853Z,1040.79
2018-05-21T01:39:00.851Z,1040.8
2018-05-21T01:40:00.837Z,1040.77
2018-05-21T01:41:00.833Z,1040.74
2018-05-21T01:42:00.821Z,1040.77
2018-05-21T01:43:00.818Z,1040.78
2018-05-21T01:44:00.804Z,1040.79
2018-05-21T01:45:00.808Z,1040.78
2018-05-21T01:46:00.793Z,1040.77
2018-05-21T01:47:00.785Z,1040.83
2018-05-21T01:48:00.771Z,1040.84
2018-05-21T01:49:00.762Z,1040.9
2018-05-21T01:50:00.760Z,1040.89
2018-05-21T01:51:00.750Z,1040.91
2018-05-21T01:52:00.742Z,1040.92
2018-05-21T01:53:00.729Z,1040.93
2018-05-21T01:54:00.726Z,1040.94
2018-05-21T01:55:00.712Z,1040.94
2018-05-21T01:56:00.712Z,1040.93
2018-05-21T01:57:00.696Z,1040.93
2018-05-21T01:58:00.694Z,1040.98
2018-05-21T01:59:00.684Z,1040.93
2018-05-21T02:00:00.670Z,1040.96
2018-05-21T02:01:00.667Z,1040.92
2018-05-21T02:02:00.658Z,1040.95
2018-05-21T02:03:00.650Z,1040.94
2018-05-21T02:04:00.636Z,1040.95
2018-05-21T02:05:00.632Z,1040.94
2018-05-21T02:06:00.624Z,1041
2018-05-21T02:07:00.615Z,1040.99
2018-05-21T02:08:00.608Z,1041.03
2018-05-21T02:09:00.596Z,1040.96
2018-05-21T02:10:00.590Z,1040.91
2018-05-21T02:11:00.578Z,1040.93
2018-05-21T02:12:00.573Z,1040.92
2018-05-21T02:13:00.559Z,1040.92
2018-05-21T02:14:00.556Z,1040.96
2018-05-21T02:15:00.543Z,1040.94
2018-05-21T02:16:00.540Z,1040.91
2018-05-21T02:17:00.525Z,1040.91
2018-05-21T02:18:00.516Z,1040.9
2018-05-21T02:19:00.508Z,1040.9
2018-05-21T02:20:00.517Z,1040.87
2018-05-21T02:21:00.497Z,1040.92
2018-05-21T02:22:00.482Z,1040.91
2018-05-21T02:23:00.474Z,1040.88
2018-05-21T02:24:00.469Z,1040.87
2018-05-21T02:25:00.456Z,1040.96
2018-05-21T02:26:00.452Z,1041
2018-05-21T02:27:00.492Z,1040.9
2018-05-21T02:28:00.434Z,1040.99
2018-05-21T02:29:00.424Z,1041.03
2018-05-21T02:30:00.419Z,1040.89
2018-05-21T02:31:00.405Z,1040.92
2018-05-21T02:32:00.402Z,1040.92
2018-05-21T02:33:00.387Z,1040.89
2018-05-21T02:34:00.378Z,1040.93
2018-05-21T02:35:00.368Z,1040.94
2018-05-21T02:36:00.367Z,1040.92
2018-05-21T02:37:00.351Z,1040.89
2018-05-21T02:38:00.356Z,1040.9
2018-05-21T02:39:00.339Z,1040.88
2018-05-21T02:40:00.331Z,1040.9
2018-05-21T02:41:00.318Z,1040.88
2018-05-21T02:42:00.315Z,1040.86
2018-05-21T02:43:00.308Z,1040.9
2018-05-21T02:44:00.295Z,1040.88
2018-05-21T02:45:00.282Z,1040.86
2018-05-21T02:46:00.278Z,1040.87
2018-05-21T02:47:00.265Z,1040.85
2018-05-21T02:48:00.260Z,1040.83
2018-05-21T02:49:00.250Z,1040.83
2018-05-21T02:50:00.243Z,1040.84
2018-05-21T02:51:00.233Z,1040.89
2018-05-21T02:52:00.226Z,1040.87
2018-05-21T02:53:00.211Z,1040.88
2018-05-21T02:54:00.207Z,1040.88
2018-05-21T02:55:00.203Z,1040.87
2018-05-21T02:56:00.190Z,1040.88
2018-05-21T02:57:00.175Z,1040.86
2018-05-21T02:58:00.172Z,1040.86
2018-05-21T02:59:00.158Z,1040.82
2018-05-21T03:00:00.155Z,1040.83
2018-05-21T03:01:00.140Z,1040.81
2018-05-21T03:02:00.136Z,1040.82
2018-05-21T03:03:00.123Z,1040.74
2018-05-21T03:04:00.119Z,1040.76
2018-05-21T03:05:00.104Z,1040.73
2018-05-21T03:06:00.096Z,1040.73
2018-05-21T03:07:00.087Z,1040.77
2018-05-21T03:08:00.083Z,1040.74
2018-05-21T03:09:00.083Z,1040.72
2018-05-21T03:10:00.062Z,1040.68
2018-05-21T03:11:00.060Z,1040.68
2018-05-21T03:12:00.043Z,1040.7
2018-05-21T03:13:00.039Z,1040.69
2018-05-21T03:14:00.026Z,1040.65
2018-05-21T03:15:00.018Z,1040.62
2018-05-21T03:16:00.014Z,1040.6
2018-05-21T03:17:00.001Z,1040.6
2018-05-21T03:17:59.998Z,1040.6
2018-05-21T03:18:59.983Z,1040.63
2018-05-21T03:19:59.979Z,1040.57
2018-05-21T03:20:59.966Z,1040.55
2018-05-21T03:21:59.960Z,1040.53
2018-05-21T03:22:59.948Z,1040.52
2018-05-21T03:23:59.943Z,1040.5
2018-05-21T03:24:59.936Z,1040.53
2018-05-21T03:25:59.921Z,1040.54
2018-05-21T03:26:59.913Z,1040.5
2018-05-21T03:27:59.905Z,1040.51
2018-05-21T03:28:59.901Z,1040.5
2018-05-21T03:29:59.892Z,1040.48
2018-05-21T03:30:59.885Z,1040.47
2018-05-21T03:31:59.871Z,1040.47
2018-05-21T03:32:59.868Z,1040.44
2018-05-21T03:33:59.853Z,1040.42
2018-05-21T03:34:59.850Z,1040.37
2018-05-21T03:35:59.836Z,1040.42
2018-05-21T03:36:59.832Z,1040.31
2018-05-21T03:37:59.823Z,1040.22
2018-05-21T03:38:59.815Z,1040.19
2018-05-21T03:39:59.802Z,1040.11
2018-05-21T03:40:59.798Z,1039.99
2018-05-21T03:41:59.785Z,1039.84
2018-05-21T03:42:59.776Z,1039.72
2018-05-21T03:43:59.768Z,1039.57
2018-05-21T03:44:59.776Z,1039.41
2018-05-21T03:45:59.751Z,1039.25
2018-05-21T03:46:59.749Z,1039.07
2018-05-21T03:47:59.735Z,1038.94
2018-05-21T03:48:59.733Z,1038.75
2018-05-21T03:49:59.720Z,1038.66
2018-05-21T03:50:59.718Z,1038.54
2018-05-21T03:51:59.705Z,1038.44
2018-05-21T03:52:59.704Z,1038.29
2018-05-21T03:53:59.695Z,1038.1
2018-05-21T03:54:59.689Z,1038.06
2018-05-21T03:55:59.676Z,1037.97
2018-05-21T03:56:59.687Z,1037.82
2018-05-21T03:57:59.668Z,1037.7
2018-05-21T03:58:59.661Z,1037.59
2018-05-21T03:59:59.655Z,1037.46
2018-05-21T04:00:59.644Z,1037.37
2018-05-21T04:01:59.644Z,1037.22
2018-05-21T04:02:59.631Z,1037.08
2018-05-21T04:03:59.632Z,1037.06
2018-05-21T04:04:59.621Z,1036.92
2018-05-21T04:05:59.621Z,1036.81
2018-05-21T04:06:59.616Z,1036.72
2018-05-21T04:07:59.606Z,1036.6
2018-05-21T04:08:59.606Z,1036.56
2018-05-21T04:09:59.602Z,1036.54
2018-05-21T04:10:59.597Z,1036.47
2018-05-21T04:11:59.603Z,1036.35
2018-05-21T04:12:59.586Z,1036.29
2018-05-21T04:13:59.585Z,1036.2
2018-05-21T04:14:59.585Z,1036.12
2018-05-21T04:15:59.578Z,1036.07
2018-05-21T04:16:59.569Z,1035.94
2018-05-21T04:17:59.570Z,1035.88
2018-05-21T04:18:59.562Z,1035.82
2018-05-21T04:19:59.564Z,1035.72
2018-05-21T04:20:59.554Z,1035.65
2018-05-21T04:21:59.557Z,1035.56
2018-05-21T04:22:59.549Z,1035.52
2018-05-21T04:23:59.553Z,1035.41
2018-05-21T04:24:59.546Z,1035.31
2018-05-21T04:25:59.542Z,1035.18
2018-05-21T04:26:59.546Z,1035.08
2018-05-21T04:27:59.544Z,1035.04
2018-05-21T04:28:59.540Z,1035.01
2018-05-21T04:29:59.535Z,1034.92
2018-05-21T04:30:59.539Z,1034.83
2018-05-21T04:31:59.535Z,1034.68
2018-05-21T04:32:59.530Z,1034.55
2018-05-21T04:33:59.533Z,1034.53
2018-05-21T04:34:59.527Z,1034.47
2018-05-21T04:35:59.530Z,1034.37
2018-05-21T04:36:59.526Z,1034.29
2018-05-21T04:37:59.534Z,1034.21
2018-05-21T04:38:59.524Z,1034.17
2018-05-21T04:39:59.528Z,1034.06
2018-05-21T04:40:59.524Z,1033.96
2018-05-21T04:41:59.523Z,1033.88
2018-05-21T04:42:59.523Z,1033.77
2018-05-21T04:43:59.530Z,1033.66
2018-05-21T04:44:59.530Z,1033.55
2018-05-21T04:45:59.526Z,1033.54
2018-05-21T04:46:59.527Z,1033.56
2018-05-21T04:47:59.528Z,1033.55
2018-05-21T04:48:59.535Z,1033.48
2018-05-21T04:49:59.531Z,1033.47
2018-05-21T04:50:59.539Z,1033.39
2018-05-21T04:51:59.536Z,1033.35
2018-05-21T04:52:59.544Z,1033.38
2018-05-21T04:53:59.541Z,1033.29
2018-05-21T04:54:59.549Z,1033.17
2018-05-21T04:55:59.546Z,1033.05
2018-05-21T04:56:59.560Z,1033
2018-05-21T04:57:59.552Z,1032.93
2018-05-21T04:58:59.555Z,1032.89
2018-05-21T04:59:59.564Z,1032.82
2018-05-21T05:00:59.568Z,1032.71
2018-05-21T05:01:59.569Z,1032.61
2018-05-21T05:02:59.570Z,1032.56
2018-05-21T05:03:59.576Z,1032.53
2018-05-21T05:04:59.584Z,1032.44
2018-05-21T05:05:59.587Z,1032.54
2018-05-21T05:06:59.594Z,1032.58
2018-05-21T05:07:59.599Z,1032.66
2018-05-21T05:08:59.603Z,1032.67
2018-05-21T05:09:59.605Z,1032.58
2018-05-21T05:10:59.614Z,1032.51
2018-05-21T05:11:59.613Z,1032.48
2018-05-21T05:12:59.624Z,1032.53
2018-05-21T05:13:59.630Z,1032.56
2018-05-21T05:14:59.636Z,1032.6
2018-05-21T05:15:59.636Z,1032.59
2018-05-21T05:16:59.641Z,1032.54
2018-05-21T05:17:59.654Z,1032.47
2018-05-21T05:18:59.660Z,1032.5
2018-05-21T05:19:59.665Z,1032.46
2018-05-21T05:20:59.668Z,1032.38
2018-05-21T05:21:59.678Z,1032.3
2018-05-21T05:22:59.697Z,1032.23
2018-05-21T05:23:59.685Z,1032.18
2018-05-21T05:24:59.701Z,1032.03
2018-05-21T05:25:59.698Z,1032.06
2018-05-21T05:26:59.709Z,1031.94
2018-05-21T05:27:59.711Z,1031.92
2018-05-21T05:28:59.724Z,1031.94
2018-05-21T05:29:59.731Z,1032
2018-05-21T05:30:59.738Z,1032.08
2018-05-21T05:31:59.739Z,1032.19
2018-05-21T05:32:59.747Z,1032.17
2018-05-21T05:33:59.758Z,1032.13
2018-05-21T05:34:59.767Z,1032.08
2018-05-21T05:35:59.795Z,1032.02
2018-05-21T05:36:59.777Z,1031.81
2018-05-21T05:37:59.789Z,1031.6
2018-05-21T05:38:59.792Z,1031.38
2018-05-21T05:39:59.806Z,1031.33
2018-05-21T05:40:59.809Z,1031.21
2018-05-21T05:41:59.844Z,1031.21
2018-05-21T05:42:59.824Z,1031.22
2018-05-21T05:43:59.838Z,1031.29
2018-05-21T05:44:59.840Z,1031.3
2018-05-21T05:45:59.849Z,1031.28
2018-05-21T05:46:59.875Z,1031.19
2018-05-21T05:47:59.872Z,1031.14
2018-05-21T05:48:59.894Z,1031.02
2018-05-21T05:49:59.890Z,1030.96
2018-05-21T05:50:59.902Z,1030.96
2018-05-21T05:51:59.908Z,1030.93
2018-05-21T05:52:59.912Z,1030.88
2018-05-21T05:53:59.926Z,1030.79
2018-05-21T05:54:59.930Z,1030.82
2018-05-21T05:55:59.943Z,1030.78
2018-05-21T05:56:59.948Z,1030.83
2018-05-21T05:57:59.962Z,1030.79
2018-05-21T05:58:59.967Z,1030.74
2018-05-21T05:59:59.981Z,1030.65
2018-05-21T06:00:59.986Z,1030.54
2018-05-21T06:02:00.008Z,1030.57
2018-05-21T06:03:00.012Z,1030.63
2018-05-21T06:04:00.016Z,1030.64
2018-05-21T06:05:00.026Z,1030.54
2018-05-21T06:06:00.042Z,1030.44
2018-05-21T06:07:00.051Z,1030.52
2018-05-21T06:08:00.061Z,1030.46
2018-05-21T06:09:00.066Z,1030.42
2018-05-21T06:10:00.081Z,1030.34
2018-05-21T06:11:00.097Z,1030.45
2018-05-21T06:12:00.102Z,1030.41
2018-05-21T06:13:00.107Z,1030.29
2018-05-21T06:14:00.129Z,1030.1
2018-05-21T06:15:00.137Z,1029.99
2018-05-21T06:16:00.141Z,1029.74
2018-05-21T06:17:00.155Z,1029.61
2018-05-21T06:18:00.164Z,1029.47
2018-05-21T06:19:00.186Z,1029.46
2018-05-21T06:20:00.182Z,1029.41
2018-05-21T06:21:00.193Z,1029.32
2018-05-21T06:22:00.208Z,1029.26
2018-05-21T06:23:00.219Z,1029.09
2018-05-21T06:24:00.231Z,1029.02
2018-05-21T06:25:00.238Z,1028.94
2018-05-21T06:26:00.269Z,1028.86
2018-05-21T06:27:00.260Z,1028.81
2018-05-21T06:28:00.282Z,1028.62
2018-05-21T06:29:00.283Z,1028.51
2018-05-21T06:30:00.305Z,1028.41
2018-05-21T06:31:00.307Z,1028.29
2018-05-21T06:32:00.325Z,1028.15
2018-05-21T06:33:00.336Z,1028.17
2018-05-21T06:34:00.513Z,1028.19
2018-05-21T06:35:00.356Z,1028.12
2018-05-21T06:36:00.374Z,1028.11
2018-05-21T06:37:00.387Z,1028.05
2018-05-21T06:38:00.394Z,1027.96
2018-05-21T06:39:00.408Z,1028.05
2018-05-21T06:40:00.425Z,1028.06
2018-05-21T06:41:00.521Z,1028.09
2018-05-21T06:42:00.453Z,1028.11
2018-05-21T06:43:00.461Z,1028.14
2018-05-21T06:44:00.478Z,1028
2018-05-21T06:45:00.486Z,1027.99
2018-05-21T06:46:00.505Z,1027.98
2018-05-21T06:47:00.512Z,1027.77
2018-05-21T06:48:00.531Z,1027.61
2018-05-21T06:49:00.540Z,1027.47
2018-05-21T06:50:00.554Z,1027.41
2018-05-21T06:51:00.567Z,1027.39
2018-05-21T06:52:00.587Z,1027.41
2018-05-21T06:53:00.599Z,1027.37
2018-05-21T06:54:00.611Z,1027.23
2018-05-21T06:55:00.623Z,1027.1
2018-05-21T06:56:00.636Z,1027.03
2018-05-21T06:57:00.657Z,1027.09
2018-05-21T06:58:00.668Z,1027.13
2018-05-21T06:59:00.683Z,1027.16
2018-05-21T07:00:00.693Z,1027.13
2018-05-21T07:01:00.713Z,1027.13
2018-05-21T07:02:00.722Z,1027.23
2018-05-21T07:03:00.737Z,1027.21
2018-05-21T07:04:00.751Z,1027.17
2018-05-21T07:05:00.771Z,1027.18
2018-05-21T07:06:00.780Z,1027.19
2018-05-21T07:07:00.800Z,1027.17
2018-05-21T07:08:00.843Z,1027.15
2018-05-21T07:09:00.828Z,1027.19
2018-05-21T07:10:00.839Z,1027.28
2018-05-21T07:11:00.865Z,1027.29
2018-05-21T07:12:00.868Z,1027.27
2018-05-21T07:13:00.888Z,1027.22
2018-05-21T07:14:00.899Z,1027.17
2018-05-21T07:15:00.918Z,1027.13
2018-05-21T07:16:00.928Z,1027.1
2018-05-21T07:17:00.947Z,1027.21
2018-05-21T07:18:00.958Z,1027.25
2018-05-21T07:19:00.976Z,1027.33
2018-05-21T07:20:00.988Z,1027.36
2018-05-21T07:21:01.009Z,1027.34
2018-05-21T07:22:01.022Z,1027.29
2018-05-21T07:23:01.032Z,1027.24
2018-05-21T07:24:01.047Z,1027.16
2018-05-21T07:25:01.062Z,1027.21
2018-05-21T07:26:01.085Z,1027.21
2018-05-21T07:27:01.096Z,1027.12
2018-05-21T07:28:01.111Z,1027.26
2018-05-21T07:29:01.121Z,1027.35
2018-05-21T07:30:01.142Z,1027.38
2018-05-21T07:31:01.151Z,1027.39
2018-05-21T07:32:01.165Z,1027.26
2018-05-21T07:33:01.187Z,1027.18
2018-05-21T07:34:01.196Z,1027.09
2018-05-21T07:35:01.210Z,1027.07
2018-05-21T07:36:01.232Z,1027.1
2018-05-21T07:37:01.245Z,1027.06
2018-05-21T07:38:01.264Z,1027.04
2018-05-21T07:39:01.274Z,1027.03
2018-05-21T07:40:01.285Z,1027.02
2018-05-21T07:41:01.309Z,1027.1
2018-05-21T07:42:01.317Z,1027.05
2018-05-21T07:43:01.328Z,1027.13
2018-05-21T07:44:01.344Z,1027.08
2018-05-21T07:45:01.364Z,1027.13
2018-05-21T07:46:01.378Z,1027.05
2018-05-21T07:47:01.398Z,1027.08
2018-05-21T07:48:01.402Z,1027.18
2018-05-21T07:49:01.440Z,1027.2
2018-05-21T07:50:01.432Z,1027.22
2018-05-21T07:51:01.448Z,1027.2
2018-05-21T07:52:01.462Z,1027.13
2018-05-21T07:53:01.482Z,1027.07
2018-05-21T07:54:01.506Z,1027.05
2018-05-21T07:55:01.509Z,1027.06
2018-05-21T07:56:01.521Z,1027.06
2018-05-21T07:57:01.542Z,1027.04
2018-05-21T07:58:01.552Z,1026.97
2018-05-21T07:59:01.636Z,1026.92
2018-05-21T08:00:01.583Z,1026.84
2018-05-21T08:01:01.606Z,1026.9
2018-05-21T08:02:01.613Z,1026.96
2018-05-21T08:03:01.633Z,1027.14
2018-05-21T08:04:01.643Z,1027.32
2018-05-21T08:05:01.663Z,1027.47
2018-05-21T08:06:01.673Z,1027.54
2018-05-21T08:07:01.687Z,1027.81
2018-05-21T08:08:01.702Z,1027.94
2018-05-21T08:09:01.722Z,1027.99
2018-05-21T08:10:01.744Z,1027.9
2018-05-21T08:11:01.745Z,1027.92
2018-05-21T08:12:01.759Z,1027.95
2018-05-21T08:13:01.774Z,1027.9
2018-05-21T08:14:01.794Z,1027.86
2018-05-21T08:15:01.801Z,1027.8
2018-05-21T08:16:01.820Z,1027.81
2018-05-21T08:17:01.830Z,1027.75
2018-05-21T08:18:01.861Z,1027.82
2018-05-21T08:19:01.863Z,1027.69
2018-05-21T08:20:01.877Z,1027.61
2018-05-21T08:21:01.885Z,1027.6
2018-05-21T08:22:01.901Z,1027.53
2018-05-21T08:23:01.944Z,1027.54
2018-05-21T08:24:01.923Z,1027.54
2018-05-21T08:25:01.943Z,1027.55
2018-05-21T08:26:01.960Z,1027.55
2018-05-21T08:27:01.962Z,1027.51
2018-05-21T08:28:01.977Z,1027.47
2018-05-21T08:29:01.989Z,1027.5
2018-05-21T08:30:02.007Z,1027.57
2018-05-21T08:31:02.014Z,1027.7
2018-05-21T08:32:02.033Z,1027.65
2018-05-21T08:33:02.041Z,1027.74
2018-05-21T08:34:02.058Z,1027.83
2018-05-21T08:35:02.067Z,1027.77
2018-05-21T08:36:02.084Z,1027.7
2018-05-21T08:37:02.092Z,1027.92
2018-05-21T08:38:02.109Z,1027.66
2018-05-21T08:39:02.121Z,1027.56
2018-05-21T08:40:02.134Z,1027.48
2018-05-21T08:41:02.145Z,1027.33
2018-05-21T08:42:02.156Z,1027.4
2018-05-21T08:43:02.174Z,1027.26
2018-05-21T08:44:02.183Z,1027.46
2018-05-21T08:45:02.198Z,1028.08
2018-05-21T08:46:02.203Z,1028.94
2018-05-21T08:47:02.221Z,1029.67
2018-05-21T08:48:02.235Z,1030.33
2018-05-21T08:49:02.239Z,1030.92
2018-05-21T08:50:02.254Z,1031.32
2018-05-21T08:51:02.261Z,1031.88
2018-05-21T08:52:02.275Z,1032.35
2018-05-21T08:53:02.286Z,1032.48
2018-05-21T08:54:02.295Z,1032.82
2018-05-21T08:55:02.307Z,1033.08
2018-05-21T08:56:02.317Z,1033.38
2018-05-21T08:57:02.317Z,1033.48
2018-05-21T08:58:02.328Z,1033.78
2018-05-21T08:59:02.338Z,1033.78
2018-05-21T09:00:02.345Z,1033.8
2018-05-21T09:01:02.353Z,1033.99
2018-05-21T09:02:02.353Z,1033.94
2018-05-21T09:03:02.363Z,1033.95
2018-05-21T09:04:02.364Z,1034.05
2018-05-21T09:05:02.375Z,1034.17
2018-05-21T09:06:02.373Z,1034.11
2018-05-21T09:07:02.384Z,1034.2
2018-05-21T09:08:02.383Z,1034.26
2018-05-21T09:09:02.397Z,1034.37
2018-05-21T09:10:02.414Z,1034.36
2018-05-21T09:11:02.393Z,1034.64
2018-05-21T09:12:02.397Z,1034.58
2018-05-21T09:13:02.406Z,1034.63
2018-05-21T09:14:02.403Z,1034.64
2018-05-21T09:15:02.411Z,1034.77
2018-05-21T09:16:02.510Z,1034.69
2018-05-21T09:17:02.415Z,1034.64
2018-05-21T09:18:02.411Z,1034.8
2018-05-21T09:19:02.423Z,1034.83
2018-05-21T09:20:02.421Z,1034.76
2018-05-21T09:21:02.422Z,1034.67
2018-05-21T09:22:02.422Z,1034.69
2018-05-21T09:23:02.435Z,1034.74
2018-05-21T09:24:02.422Z,1034.65
2018-05-21T09:25:02.427Z,1034.67
2018-05-21T09:26:02.472Z,1034.87
2018-05-21T09:27:02.431Z,1034.81
2018-05-21T09:28:02.430Z,1034.73
2018-05-21T09:29:02.426Z,1034.63
2018-05-21T09:30:02.432Z,1034.71
2018-05-21T09:31:02.433Z,1034.53
2018-05-21T09:32:02.435Z,1034.61
2018-05-21T09:33:02.470Z,1034.57
2018-05-21T09:34:02.429Z,1034.5
2018-05-21T09:35:02.435Z,1034.77
2018-05-21T09:36:09.437Z,1034.69
2018-05-21T09:37:02.438Z,1034.7
2018-05-21T09:38:02.434Z,1034.63
2018-05-21T09:39:02.438Z,1034.61
2018-05-21T09:40:02.440Z,1034.63
2018-05-21T09:41:02.433Z,1034.44
2018-05-21T09:43:02.439Z,1034.59
2018-05-21T09:44:02.437Z,1034.5
2018-05-21T09:45:02.435Z,1034.45
2018-05-21T09:47:02.436Z,1034.36
2018-05-21T09:48:02.448Z,1034.35
2018-05-21T09:49:02.435Z,1034.33
2018-05-21T09:50:02.440Z,1034.4
2018-05-21T09:51:02.444Z,1034.41
2018-05-21T09:52:02.435Z,1034.35
2018-05-21T09:53:02.436Z,1034.38
2018-05-21T09:54:02.434Z,1034.33
2018-05-21T09:55:02.441Z,1034.33
2018-05-21T09:56:02.437Z,1034.29
2018-05-21T09:57:02.440Z,1034.26
2018-05-21T09:58:02.435Z,1034.19
2018-05-21T09:59:02.440Z,1034.18
2018-05-21T10:00:02.440Z,1034.3
2018-05-21T10:01:02.440Z,1034.59
2018-05-21T10:02:02.436Z,1034.49
2018-05-21T10:03:02.443Z,1034.52
2018-05-21T10:04:02.443Z,1034.61
2018-05-21T10:05:02.441Z,1034.51
2018-05-21T10:06:02.437Z,1034.37
2018-05-21T10:07:02.442Z,1034.25
2018-05-21T10:08:02.447Z,1034.17
2018-05-21T10:09:02.437Z,1034.09
2018-05-21T10:10:02.438Z,1034.09
2018-05-21T10:11:02.444Z,1034.25
2018-05-21T10:12:02.522Z,1034.03
2018-05-21T10:13:02.460Z,1034.09
2018-05-21T10:14:02.440Z,1034.14
2018-05-21T10:15:02.452Z,1034.08
2018-05-21T10:16:02.441Z,1034.12
2018-05-21T10:17:02.445Z,1034.15
2018-05-21T10:18:02.440Z,1034.19
2018-05-21T10:19:02.444Z,1034.18
2018-05-21T10:20:02.445Z,1034.13
2018-05-21T10:21:02.473Z,1034.15
2018-05-21T10:22:02.444Z,1034.14
2018-05-21T10:23:02.440Z,1034.13
2018-05-21T10:24:02.445Z,1034.12
2018-05-21T10:25:02.446Z,1034.16
2018-05-21T10:26:02.468Z,1034.12
2018-05-21T10:27:02.441Z,1034.03
2018-05-21T10:28:02.446Z,1034.05
2018-05-21T10:29:02.443Z,1033.99
2018-05-21T10:30:02.450Z,1033.98
2018-05-21T10:31:02.442Z,1033.96
2018-05-21T10:32:02.448Z,1033.96
2018-05-21T10:33:02.447Z,1033.97
2018-05-21T10:34:02.446Z,1033.92
2018-05-21T10:35:02.453Z,1033.85
2018-05-21T10:36:02.448Z,1033.77
2018-05-21T10:37:02.541Z,1033.77
2018-05-21T10:38:02.440Z,1033.72
2018-05-21T10:39:02.440Z,1033.73
2018-05-21T10:40:02.446Z,1033.63
2018-05-21T10:41:02.449Z,1033.56
2018-05-21T10:42:02.446Z,1033.61
2018-05-21T10:43:02.443Z,1033.63
2018-05-21T10:44:02.445Z,1033.61
2018-05-21T10:45:02.439Z,1033.57
2018-05-21T10:46:02.444Z,1033.53
2018-05-21T10:47:02.440Z,1033.3
2018-05-21T10:48:02.446Z,1033.22
2018-05-21T10:49:02.439Z,1033.19
2018-05-21T10:50:02.445Z,1033.14
2018-05-21T10:51:02.440Z,1033.16
2018-05-21T10:52:02.440Z,1033.19
2018-05-21T10:53:02.445Z,1033.18
2018-05-21T10:54:02.445Z,1033.4
2018-05-21T10:55:02.445Z,1033.39
2018-05-21T10:56:02.441Z,1033.4
2018-05-21T10:57:02.440Z,1033.35
2018-05-21T10:58:02.445Z,1033.54
2018-05-21T10:59:02.440Z,1033.45
2018-05-21T11:00:02.446Z,1033.41
2018-05-21T11:01:02.446Z,1033.34
2018-05-21T11:02:02.446Z,1033.31
2018-05-21T11:03:02.440Z,1033.17
2018-05-21T11:04:02.445Z,1033.09
2018-05-21T11:05:02.441Z,1033.1
2018-05-21T11:06:02.450Z,1033.03
2018-05-21T11:07:02.443Z,1033.04
2018-05-21T11:08:02.440Z,1033
2018-05-21T11:09:02.442Z,1032.84
2018-05-21T11:10:02.451Z,1032.88
2018-05-21T11:11:02.447Z,1032.89
2018-05-21T11:12:02.556Z,1032.89
2018-05-21T11:13:02.450Z,1032.95
2018-05-21T11:14:02.443Z,1032.83
2018-05-21T11:15:02.448Z,1032.84
2018-05-21T11:16:02.448Z,1032.73
2018-05-21T11:17:02.450Z,1032.78
2018-05-21T11:18:02.539Z,1032.77
2018-05-21T11:19:02.450Z,1032.74
2018-05-21T11:20:02.445Z,1032.83
2018-05-21T11:21:02.450Z,1032.74
2018-05-21T11:22:02.446Z,1032.68
2018-05-21T11:23:02.452Z,1032.54
2018-05-21T11:24:02.447Z,1032.47
2018-05-21T11:25:02.447Z,1032.48
2018-05-21T11:26:02.453Z,1032.26
2018-05-21T11:27:02.454Z,1032.15
2018-05-21T11:28:02.455Z,1032.08
2018-05-21T11:29:02.451Z,1032.14
2018-05-21T11:30:02.452Z,1032.02
2018-05-21T11:31:02.457Z,1031.99
2018-05-21T11:32:02.524Z,1031.86
2018-05-21T11:33:02.459Z,1031.92
2018-05-21T11:34:02.458Z,1031.79
2018-05-21T11:35:02.461Z,1031.73
2018-05-21T11:36:02.456Z,1031.65
2018-05-21T11:37:02.466Z,1031.45
2018-05-21T11:38:02.459Z,1031.36
2018-05-21T11:39:02.465Z,1031.27
2018-05-21T11:40:02.471Z,1031.14
2018-05-21T11:41:02.469Z,1031.13
2018-05-21T11:42:02.466Z,1031
2018-05-21T11:43:02.467Z,1031
2018-05-21T11:44:02.473Z,1031.08
2018-05-21T11:45:02.475Z,1030.91
2018-05-21T11:46:02.481Z,1030.91
2018-05-21T11:47:02.483Z,1030.83
2018-05-21T11:48:02.482Z,1031.07
2018-05-21T11:49:02.489Z,1031.04
2018-05-21T11:50:02.481Z,1031.04
2018-05-21T11:51:02.494Z,1031.04
2018-05-21T11:52:02.486Z,1030.96
2018-05-21T11:53:02.495Z,1030.96
2018-05-21T11:54:02.490Z,1030.96
2018-05-21T11:55:02.498Z,1031.03
2018-05-21T11:56:02.502Z,1031
2018-05-21T11:57:02.504Z,1030.89
2018-05-21T11:58:02.502Z,1030.91
2018-05-21T11:59:02.503Z,1030.93
2018-05-21T12:00:02.510Z,1030.96
2018-05-21T12:01:02.514Z,1030.91
2018-05-21T12:02:02.523Z,1030.83
2018-05-21T12:03:02.513Z,1030.79
2018-05-21T12:04:02.521Z,1030.65
2018-05-21T12:05:02.518Z,1030.8
2018-05-21T12:06:02.525Z,1030.55
2018-05-21T12:07:02.524Z,1030.51
2018-05-21T12:08:02.533Z,1030.52
2018-05-21T12:09:02.528Z,1030.37
2018-05-21T12:10:02.537Z,1030.38